createdAt,value
2018-09-06T00:01:09.543Z,18.50
2018-09-06T00:03:21.780Z,18.48
2018-09-06T00:05:34.101Z,18.43
2018-09-06T00:07:46.395Z,18.37
2018-09-06T00:09:58.611Z,18.31
2018-09-06T00:12:10.808Z,18.32
2018-09-06T00:14:23.048Z,18.26
2018-09-06T00:16:35.335Z,18.19
2018-09-06T00:18:47.555Z,18.13
2018-09-06T00:20:59.795Z,18.09
2018-09-06T00:23:12.060Z,18.11
2018-09-06T00:25:24.300Z,18.11
2018-09-06T00:27:36.485Z,18.08
2018-09-06T00:29:48.709Z,18.04
2018-09-06T00:32:00.943Z,18.03
2018-09-06T00:34:13.135Z,17.94
2018-09-06T00:36:25.408Z,17.91
2018-09-06T00:38:37.594Z,17.88
2018-09-06T00:40:49.894Z,17.84
2018-09-06T00:43:02.126Z,17.84
2018-09-06T00:45:14.327Z,17.86
2018-09-06T00:47:26.550Z,17.84
2018-09-06T00:49:38.767Z,17.79
2018-09-06T00:51:51.007Z,17.74
2018-09-06T00:54:03.228Z,17.70
2018-09-06T00:56:15.441Z,17.69
2018-09-06T00:58:27.636Z,17.70
2018-09-06T01:00:39.804Z,17.67
2018-09-06T01:02:52.051Z,17.67
2018-09-06T01:05:04.303Z,17.70
2018-09-06T01:07:16.563Z,17.73
2018-09-06T01:09:28.775Z,17.68
2018-09-06T01:11:40.966Z,17.62
2018-09-06T01:13:53.166Z,17.53
2018-09-06T01:16:06.210Z,17.45
2018-09-06T01:18:18.424Z,17.44
2018-09-06T01:20:30.731Z,17.36
2018-09-06T01:22:42.932Z,17.24
2018-09-06T01:24:55.161Z,17.23
2018-09-06T01:27:07.372Z,17.25
2018-09-06T01:29:19.594Z,17.26
2018-09-06T01:31:31.786Z,17.26
2018-09-06T01:33:44.002Z,17.29
2018-09-06T01:36:01.759Z,17.31
2018-09-06T01:38:13.946Z,17.31
2018-09-06T01:40:26.142Z,17.29
2018-09-06T01:42:38.321Z,17.30
2018-09-06T01:44:50.508Z,17.29
2018-09-06T01:47:02.726Z,17.30
2018-09-06T01:49:14.920Z,17.30
2018-09-06T01:51:27.093Z,17.30
2018-09-06T01:53:39.280Z,17.31
2018-09-06T01:55:51.438Z,17.32
2018-09-06T01:58:03.663Z,17.36
2018-09-06T02:00:15.878Z,17.30
2018-09-06T02:02:28.060Z,17.25
2018-09-06T02:04:40.291Z,17.24
2018-09-06T02:06:52.463Z,17.21
2018-09-06T02:09:06.747Z,17.19
2018-09-06T02:11:19.005Z,17.12
2018-09-06T02:13:31.178Z,17.09
2018-09-06T02:15:43.362Z,17.02
2018-09-06T02:17:55.578Z,17.03
2018-09-06T02:20:07.778Z,17.11
2018-09-06T02:22:19.980Z,17.17
2018-09-06T02:24:32.249Z,17.22
2018-09-06T02:26:44.346Z,17.24
2018-09-06T02:28:56.563Z,17.25
2018-09-06T02:31:08.736Z,17.25
2018-09-06T02:33:20.915Z,17.29
2018-09-06T02:35:33.115Z,17.32
2018-09-06T02:37:45.310Z,17.34
2018-09-06T02:39:57.508Z,17.35
2018-09-06T02:42:09.719Z,17.40
2018-09-06T02:44:22.086Z,17.42
2018-09-06T02:46:34.326Z,17.45
2018-09-06T02:48:46.482Z,17.43
2018-09-06T02:51:04.266Z,17.41
2018-09-06T02:53:16.463Z,17.44
2018-09-06T02:55:29.379Z,17.45
2018-09-06T02:57:41.554Z,17.47
2018-09-06T02:59:53.731Z,17.50
2018-09-06T03:02:05.971Z,17.44
2018-09-06T03:04:18.170Z,17.41
2018-09-06T03:06:30.369Z,17.42
2018-09-06T03:08:42.630Z,17.39
2018-09-06T03:12:03.286Z,17.28
2018-09-06T03:14:15.561Z,17.16
2018-09-06T03:16:27.819Z,17.09
2018-09-06T03:18:40.001Z,17.07
2018-09-06T03:20:52.248Z,17.02
2018-09-06T03:23:05.103Z,17.01
2018-09-06T03:25:17.261Z,16.94
2018-09-06T03:27:29.487Z,16.89
2018-09-06T03:29:41.688Z,16.86
2018-09-06T03:31:53.855Z,16.80
2018-09-06T03:34:06.085Z,16.77
2018-09-06T03:36:18.255Z,16.74
2018-09-06T03:38:30.471Z,16.70
2018-09-06T03:40:42.635Z,16.70
2018-09-06T03:42:54.914Z,16.67
2018-09-06T03:45:07.072Z,16.62
2018-09-06T03:47:19.273Z,16.56
2018-09-06T03:49:31.452Z,16.50
2018-09-06T03:51:43.602Z,16.51
2018-09-06T03:53:55.780Z,16.53
2018-09-06T03:56:08.004Z,16.55
2018-09-06T03:58:20.486Z,16.53
2018-09-06T04:00:32.680Z,16.50
2018-09-06T04:02:44.906Z,16.49
2018-09-06T04:04:57.165Z,16.46
2018-09-06T04:07:09.389Z,16.47
2018-09-06T04:09:21.579Z,16.46
2018-09-06T04:11:33.795Z,16.46
2018-09-06T04:13:45.938Z,16.39
2018-09-06T04:15:58.123Z,16.28
2018-09-06T04:18:10.466Z,16.16
2018-09-06T04:20:22.719Z,16.12
2018-09-06T04:22:39.444Z,16.12
2018-09-06T04:24:51.667Z,16.15
2018-09-06T04:27:03.888Z,16.15
2018-09-06T04:29:16.078Z,16.21
2018-09-06T04:31:35.027Z,16.23
2018-09-06T04:33:47.283Z,16.24
2018-09-06T04:35:59.543Z,16.27
2018-09-06T04:38:11.675Z,16.28
2018-09-06T04:40:23.881Z,16.26
2018-09-06T04:42:36.203Z,16.26
2018-09-06T04:44:48.382Z,16.28
2018-09-06T04:47:00.602Z,16.35
2018-09-06T04:49:12.807Z,16.34
2018-09-06T04:51:25.050Z,16.35
2018-09-06T04:53:37.278Z,16.39
2018-09-06T04:55:49.446Z,16.39
2018-09-06T04:58:01.667Z,16.39
2018-09-06T05:00:14.122Z,16.40
2018-09-06T05:02:26.310Z,16.42
2018-09-06T05:04:38.511Z,16.43
2018-09-06T05:06:50.763Z,16.49
2018-09-06T05:09:04.678Z,16.53
2018-09-06T05:11:16.934Z,16.51
2018-09-06T05:13:29.107Z,16.56
2018-09-06T05:15:41.357Z,16.61
2018-09-06T05:17:53.575Z,16.68
2018-09-06T05:20:05.813Z,16.71
2018-09-06T05:22:18.007Z,16.78
2018-09-06T05:24:30.399Z,16.86
2018-09-06T05:26:42.583Z,16.92
2018-09-06T05:28:54.861Z,17.02
2018-09-06T05:31:07.119Z,17.12
2018-09-06T05:33:19.314Z,17.19
2018-09-06T05:35:31.492Z,17.29
2018-09-06T05:37:43.663Z,17.38
2018-09-06T05:39:55.875Z,17.50
2018-09-06T05:42:08.122Z,17.65
2018-09-06T05:44:20.303Z,17.76
2018-09-06T05:46:32.553Z,17.86
2018-09-06T05:48:44.812Z,17.97
2018-09-06T05:50:57.003Z,18.10
2018-09-06T05:53:09.207Z,18.17
2018-09-06T05:55:21.699Z,18.19
2018-09-06T05:57:33.902Z,18.19
2018-09-06T05:59:46.120Z,18.18
2018-09-06T06:01:58.287Z,18.23
2018-09-06T06:04:10.495Z,18.24
2018-09-06T06:06:22.703Z,18.32
2018-09-06T06:08:39.055Z,18.37
2018-09-06T06:10:51.292Z,18.45
2018-09-06T06:13:03.511Z,18.48
2018-09-06T06:15:15.710Z,18.54
2018-09-06T06:17:27.923Z,18.62
2018-09-06T06:19:40.109Z,18.67
2018-09-06T06:21:52.327Z,18.73
2018-09-06T06:24:04.519Z,18.87
2018-09-06T06:26:16.722Z,19.04
2018-09-06T06:28:28.907Z,19.19
2018-09-06T06:30:41.167Z,19.31
2018-09-06T06:32:53.409Z,19.46
2018-09-06T06:35:05.604Z,19.54
2018-09-06T06:37:17.817Z,19.56
2018-09-06T06:39:29.999Z,19.54
2018-09-06T06:41:42.167Z,19.54
2018-09-06T06:43:54.390Z,19.61
2018-09-06T06:46:06.555Z,19.72
2018-09-06T06:48:18.759Z,19.88
2018-09-06T06:50:31.086Z,20.05
2018-09-06T06:52:43.236Z,20.32
2018-09-06T06:54:55.450Z,20.56
2018-09-06T06:57:07.654Z,20.85
2018-09-06T06:59:19.917Z,21.18
2018-09-06T07:01:32.137Z,21.55
2018-09-06T07:03:44.388Z,21.91
2018-09-06T07:05:56.609Z,22.27
2018-09-06T07:08:09.239Z,22.55
2018-09-06T07:10:21.490Z,22.77
2018-09-06T07:12:33.716Z,22.97
2018-09-06T07:14:45.920Z,23.14
2018-09-06T07:16:58.502Z,23.22
2018-09-06T07:19:10.688Z,23.24
2018-09-06T07:21:22.992Z,23.42
2018-09-06T07:23:35.213Z,23.66
2018-09-06T07:25:47.420Z,23.84
2018-09-06T07:27:59.603Z,24.07
2018-09-06T07:30:11.863Z,24.30
2018-09-06T07:32:24.050Z,24.33
2018-09-06T07:34:36.244Z,24.41
2018-09-06T07:36:48.472Z,24.33
2018-09-06T07:39:00.691Z,24.28
2018-09-06T07:41:12.951Z,24.27
2018-09-06T07:43:25.132Z,24.25
2018-09-06T07:45:37.351Z,24.13
2018-09-06T07:47:49.607Z,24.16
2018-09-06T07:50:02.052Z,24.22
2018-09-06T07:52:14.345Z,24.22
2018-09-06T07:54:26.553Z,24.34
2018-09-06T07:56:38.813Z,24.36
2018-09-06T07:58:51.439Z,24.35
2018-09-06T08:01:03.728Z,24.33
2018-09-06T08:03:15.988Z,24.40
2018-09-06T08:05:28.262Z,24.53
2018-09-06T08:07:40.488Z,24.66
2018-09-06T08:09:52.718Z,24.88
2018-09-06T08:12:05.122Z,25.11
2018-09-06T08:14:17.344Z,25.34
2018-09-06T08:16:29.611Z,25.34
2018-09-06T08:18:41.896Z,25.30
2018-09-06T08:20:54.198Z,25.38
2018-09-06T08:23:06.482Z,25.48
2018-09-06T08:25:18.730Z,25.53
2018-09-06T08:27:30.942Z,25.34
2018-09-06T08:29:43.223Z,25.04
2018-09-06T08:31:55.451Z,24.69
2018-09-06T08:34:07.746Z,24.64
2018-09-06T08:36:20.216Z,24.76
2018-09-06T08:38:32.450Z,25.00
2018-09-06T08:40:44.723Z,25.19
2018-09-06T08:42:56.944Z,25.32
2018-09-06T08:45:09.302Z,25.40
2018-09-06T08:47:21.564Z,25.55
2018-09-06T08:49:33.776Z,25.65
2018-09-06T08:51:46.031Z,25.68
2018-09-06T08:53:58.252Z,25.79
2018-09-06T08:56:10.499Z,25.94
2018-09-06T08:58:22.752Z,25.99
2018-09-06T09:00:36.930Z,26.03
2018-09-06T09:02:49.239Z,26.03
2018-09-06T09:05:01.403Z,26.14
2018-09-06T09:07:13.637Z,26.27
2018-09-06T09:09:25.875Z,26.37
2018-09-06T09:11:38.194Z,26.48
2018-09-06T09:13:50.414Z,26.63
2018-09-06T09:16:02.687Z,26.65
2018-09-06T09:18:14.971Z,26.70
2018-09-06T09:20:27.238Z,26.79
2018-09-06T09:22:39.511Z,26.84
2018-09-06T09:24:51.759Z,26.83
2018-09-06T09:27:04.117Z,26.89
2018-09-06T09:29:16.393Z,26.98
2018-09-06T09:31:28.651Z,26.99
2018-09-06T09:33:40.975Z,27.08
2018-09-06T09:35:53.242Z,27.21
2018-09-06T09:38:05.669Z,27.40
2018-09-06T09:40:17.926Z,27.55
2018-09-06T09:42:30.174Z,27.66
2018-09-06T09:44:42.460Z,27.77
2018-09-06T09:49:06.652Z,28.04
2018-09-06T09:51:18.847Z,28.19
2018-09-06T09:53:31.085Z,28.35
2018-09-06T09:55:43.320Z,28.59
2018-09-06T09:57:56.252Z,28.69
2018-09-06T10:00:09.240Z,28.58
2018-09-06T10:02:27.051Z,28.55
2018-09-06T10:04:43.906Z,28.51
2018-09-06T10:07:01.897Z,28.22
2018-09-06T10:09:23.196Z,28.12
2018-09-06T10:11:35.456Z,28.27
2018-09-06T10:13:47.810Z,28.33
2018-09-06T10:16:00.112Z,28.37
2018-09-06T10:18:12.482Z,28.48
2018-09-06T10:20:24.667Z,28.44
2018-09-06T10:22:36.991Z,28.28
2018-09-06T10:24:49.230Z,28.26
2018-09-06T10:27:01.491Z,28.29
2018-09-06T10:29:13.675Z,28.37
2018-09-06T10:31:26.045Z,28.40
2018-09-06T10:33:38.295Z,28.36
2018-09-06T10:35:50.524Z,28.46
2018-09-06T10:38:02.769Z,28.56
2018-09-06T10:40:15.024Z,28.79
2018-09-06T10:42:27.323Z,29.06
2018-09-06T10:44:39.572Z,29.27
2018-09-06T10:46:51.837Z,29.31
2018-09-06T10:49:04.104Z,29.27
2018-09-06T10:51:16.424Z,29.35
2018-09-06T10:53:28.666Z,29.40
2018-09-06T10:55:40.931Z,29.40
2018-09-06T10:57:53.260Z,29.32
2018-09-06T11:00:06.065Z,29.21
2018-09-06T11:02:18.358Z,29.14
2018-09-06T11:04:30.734Z,28.95
2018-09-06T11:06:43.116Z,28.82
2018-09-06T11:08:55.327Z,28.90
2018-09-06T11:11:07.589Z,28.95
2018-09-06T11:13:19.883Z,28.93
2018-09-06T11:15:32.159Z,28.79
2018-09-06T11:17:44.475Z,28.57
2018-09-06T11:19:56.712Z,28.40
2018-09-06T11:22:09.090Z,28.21
2018-09-06T11:24:21.189Z,28.02
2018-09-06T11:26:33.391Z,27.90
2018-09-06T11:28:45.634Z,27.81
2018-09-06T11:30:57.839Z,27.60
2018-09-06T11:33:10.127Z,27.49
2018-09-06T11:35:22.331Z,27.47
2018-09-06T11:37:35.494Z,27.43
2018-09-06T11:39:47.719Z,27.40
2018-09-06T11:42:00.009Z,27.36
2018-09-06T11:44:12.208Z,27.28
2018-09-06T11:46:24.404Z,27.13
2018-09-06T11:48:36.838Z,27.00
2018-09-06T11:50:49.445Z,26.78
2018-09-06T11:53:01.723Z,26.63
2018-09-06T11:55:14.240Z,26.40
2018-09-06T11:57:26.450Z,26.17
2018-09-06T11:59:38.671Z,25.72
2018-09-06T12:01:50.922Z,25.49
2018-09-06T12:04:03.234Z,25.32
2018-09-06T12:06:15.592Z,25.24
2018-09-06T12:08:27.852Z,25.09
2018-09-06T12:10:40.143Z,24.99
2018-09-06T12:12:52.400Z,24.93
2018-09-06T12:15:04.706Z,24.87
2018-09-06T12:17:16.913Z,24.81
2018-09-06T12:19:29.146Z,24.84
2018-09-06T12:21:41.395Z,24.82
2018-09-06T12:23:53.604Z,24.87
2018-09-06T12:26:06.015Z,24.95
2018-09-06T12:28:18.305Z,24.98
2018-09-06T12:30:30.596Z,25.07
2018-09-06T12:32:42.808Z,25.19
2018-09-06T12:34:55.019Z,25.40
2018-09-06T12:37:13.377Z,25.63
2018-09-06T12:39:25.592Z,25.78
2018-09-06T12:41:38.476Z,25.90
2018-09-06T12:43:50.701Z,26.00
2018-09-06T12:46:02.938Z,26.11
2018-09-06T12:48:15.161Z,26.18
2018-09-06T12:50:27.388Z,26.19
2018-09-06T12:52:39.612Z,26.20
2018-09-06T12:54:51.854Z,26.17
2018-09-06T12:57:04.230Z,26.19
2018-09-06T12:59:16.492Z,26.21
2018-09-06T13:01:28.762Z,26.22
2018-09-06T13:03:41.268Z,26.22
2018-09-06T13:05:53.498Z,26.20
2018-09-06T13:08:06.259Z,26.15
2018-09-06T13:10:18.471Z,26.14
2018-09-06T13:12:30.712Z,26.18
2018-09-06T13:14:42.959Z,26.22
2018-09-06T13:16:55.311Z,26.29
2018-09-06T13:19:07.533Z,26.35
2018-09-06T13:21:19.731Z,26.42
2018-09-06T13:23:31.996Z,26.45
2018-09-06T13:25:44.311Z,26.56
2018-09-06T13:27:56.557Z,26.63
2018-09-06T13:30:08.822Z,26.70
2018-09-06T13:32:21.070Z,26.76
2018-09-06T13:34:33.290Z,26.73
2018-09-06T13:36:45.498Z,26.75
2018-09-06T13:38:57.736Z,26.78
2018-09-06T13:41:10.019Z,26.77
2018-09-06T13:43:22.260Z,26.88
2018-09-06T13:45:34.447Z,26.94
2018-09-06T13:47:46.740Z,26.99
2018-09-06T13:49:58.971Z,26.99
2018-09-06T13:52:11.253Z,26.98
2018-09-06T13:54:23.371Z,27.01
2018-09-06T13:56:35.652Z,27.05
2018-09-06T13:58:47.950Z,27.07
2018-09-06T14:01:00.178Z,27.12
2018-09-06T14:03:12.431Z,27.16
2018-09-06T14:05:24.783Z,27.15
2018-09-06T14:07:37.003Z,27.22
2018-09-06T14:09:49.291Z,27.19
2018-09-06T14:12:02.994Z,27.17
2018-09-06T14:14:15.241Z,27.13
2018-09-06T14:16:27.656Z,27.12
2018-09-06T14:18:39.869Z,27.14
2018-09-06T14:20:52.103Z,27.10
2018-09-06T14:23:04.359Z,27.18
2018-09-06T14:25:16.591Z,27.21
2018-09-06T14:27:28.839Z,27.26
2018-09-06T14:29:41.504Z,27.27
2018-09-06T14:31:53.761Z,27.26
2018-09-06T14:34:05.995Z,27.28
2018-09-06T14:36:18.305Z,27.26
2018-09-06T14:38:30.572Z,27.21
2018-09-06T14:40:42.804Z,27.21
2018-09-06T14:42:55.127Z,27.14
2018-09-06T14:45:07.414Z,27.03
2018-09-06T14:47:19.679Z,27.03
2018-09-06T14:49:31.997Z,27.04
2018-09-06T14:51:44.207Z,27.04
2018-09-06T14:53:56.443Z,26.99
2018-09-06T14:56:09.205Z,26.94
2018-09-06T14:58:21.450Z,26.89
2018-09-06T15:00:33.719Z,26.81
2018-09-06T15:02:45.978Z,26.70
2018-09-06T15:04:58.240Z,26.53
2018-09-06T15:07:10.480Z,26.37
2018-09-06T15:09:22.720Z,26.17
2018-09-06T15:11:34.947Z,26.00
2018-09-06T15:13:47.282Z,25.77
2018-09-06T15:15:59.470Z,25.60
2018-09-06T15:18:11.700Z,25.42
2018-09-06T15:20:23.943Z,25.39
2018-09-06T15:22:36.172Z,25.30
2018-09-06T15:24:48.475Z,25.25
2018-09-06T15:27:00.711Z,25.12
2018-09-06T15:29:12.923Z,25.06
2018-09-06T15:31:25.396Z,25.01
2018-09-06T15:33:37.637Z,24.96
2018-09-06T15:35:49.925Z,24.81
2018-09-06T15:38:02.100Z,24.74
2018-09-06T15:40:14.374Z,24.72
2018-09-06T15:42:26.602Z,24.67
2018-09-06T15:44:38.842Z,24.60
2018-09-06T15:46:51.068Z,24.54
2018-09-06T15:49:03.320Z,24.56
2018-09-06T15:51:15.608Z,24.52
2018-09-06T15:53:27.855Z,24.39
2018-09-06T15:55:40.174Z,24.24
2018-09-06T15:57:52.370Z,24.14
2018-09-06T16:00:04.703Z,23.97
2018-09-06T16:02:16.916Z,23.71
2018-09-06T16:04:29.116Z,23.53
2018-09-06T16:06:41.347Z,23.45
2018-09-06T16:08:53.544Z,23.34
2018-09-06T16:11:05.799Z,23.24
2018-09-06T16:13:18.002Z,23.11
2018-09-06T16:15:30.240Z,23.00
2018-09-06T16:17:42.482Z,22.69
2018-09-06T16:19:54.761Z,22.50
2018-09-06T16:22:07.028Z,22.43
2018-09-06T16:24:19.271Z,22.29
2018-09-06T16:26:31.559Z,22.17
2018-09-06T16:28:43.779Z,22.03
2018-09-06T16:30:56.044Z,21.93
2018-09-06T16:33:08.286Z,21.78
2018-09-06T16:35:20.544Z,21.64
2018-09-06T16:37:32.759Z,21.50
2018-09-06T16:39:45.010Z,21.26
2018-09-06T16:41:57.259Z,21.05
2018-09-06T16:44:09.588Z,20.98
2018-09-06T16:46:21.879Z,20.82
2018-09-06T16:48:34.203Z,20.71
2018-09-06T16:50:46.423Z,20.69
2018-09-06T16:52:58.710Z,20.63
2018-09-06T16:55:11.086Z,20.65
2018-09-06T16:57:23.374Z,20.58
2018-09-06T16:59:35.771Z,20.48
2018-09-06T17:01:48.027Z,20.30
2018-09-06T17:04:00.288Z,20.26
2018-09-06T17:06:12.536Z,20.14
2018-09-06T17:08:24.837Z,20.09
2018-09-06T17:10:37.129Z,20.13
2018-09-06T17:12:49.446Z,20.10
2018-09-06T17:15:01.776Z,20.06
2018-09-06T17:17:14.090Z,20.02
2018-09-06T17:19:26.313Z,20.00
2018-09-06T17:21:38.576Z,19.98
2018-09-06T17:23:50.824Z,19.95
2018-09-06T17:26:03.094Z,19.94
2018-09-06T17:28:15.276Z,19.99
2018-09-06T17:30:27.534Z,20.04
2018-09-06T17:32:40.732Z,20.05
2018-09-06T17:34:53.069Z,20.07
2018-09-06T17:37:05.393Z,20.08
2018-09-06T17:39:17.779Z,20.07
2018-09-06T17:41:29.955Z,20.01
2018-09-06T17:43:42.214Z,20.06
2018-09-06T17:45:54.417Z,20.22
2018-09-06T17:48:06.675Z,20.41
2018-09-06T17:50:18.981Z,20.48
2018-09-06T17:52:31.259Z,20.49
2018-09-06T17:54:43.467Z,20.47
2018-09-06T17:56:55.864Z,20.53
2018-09-06T17:59:08.207Z,20.56
2018-09-06T18:01:32.271Z,20.60
2018-09-06T18:03:45.125Z,20.60
2018-09-06T18:05:57.610Z,20.56
2018-09-06T18:08:09.890Z,20.56
2018-09-06T18:10:22.192Z,20.59
2018-09-06T18:12:34.454Z,20.61
2018-09-06T18:14:46.761Z,20.55
2018-09-06T18:16:59.091Z,20.50
2018-09-06T18:19:11.338Z,20.43
2018-09-06T18:21:24.403Z,20.38
2018-09-06T18:23:36.711Z,20.35
2018-09-06T18:25:48.978Z,20.30
2018-09-06T18:28:01.340Z,20.25
2018-09-06T18:30:13.729Z,20.21
2018-09-06T18:32:26.079Z,20.21
2018-09-06T18:34:38.326Z,20.19
2018-09-06T18:36:50.621Z,20.19
2018-09-06T18:39:04.523Z,20.18
2018-09-06T18:41:16.836Z,20.08
2018-09-06T18:43:29.111Z,20.05
2018-09-06T18:45:41.383Z,20.02
2018-09-06T18:47:53.712Z,20.04
2018-09-06T18:50:06.001Z,20.05
2018-09-06T18:52:18.284Z,20.04
2018-09-06T18:54:30.602Z,20.02
2018-09-06T18:56:42.843Z,20.02
2018-09-06T18:58:55.061Z,20.02
2018-09-06T19:01:07.345Z,19.98
2018-09-06T19:03:19.622Z,19.91
2018-09-06T19:05:32.000Z,19.87
2018-09-06T19:07:44.243Z,19.87
2018-09-06T19:09:56.448Z,19.92
2018-09-06T19:12:08.740Z,19.95
2018-09-06T19:14:20.997Z,20.01
2018-09-06T19:16:33.303Z,20.01
2018-09-06T19:18:45.549Z,20.03
2018-09-06T19:20:57.796Z,20.00
2018-09-06T19:23:10.179Z,19.94
2018-09-06T19:25:23.324Z,19.88
2018-09-06T19:27:35.663Z,19.84
2018-09-06T19:29:47.909Z,19.89
2018-09-06T19:32:00.260Z,19.92
2018-09-06T19:34:12.631Z,19.95
2018-09-06T19:36:24.894Z,20.01
2018-09-06T19:38:37.145Z,19.99
2018-09-06T19:40:49.439Z,19.92
2018-09-06T19:43:01.727Z,19.90
2018-09-06T19:45:14.001Z,19.90
2018-09-06T19:47:26.355Z,19.92
2018-09-06T19:49:38.626Z,19.87
2018-09-06T19:51:50.895Z,19.89
2018-09-06T19:54:03.269Z,19.88
2018-09-06T19:56:15.674Z,19.89
2018-09-06T19:58:27.958Z,19.88
2018-09-06T20:00:40.256Z,19.92
2018-09-06T20:02:52.571Z,19.91
2018-09-06T20:05:04.931Z,19.89
2018-09-06T20:07:17.203Z,19.87
2018-09-06T20:09:29.463Z,19.80
2018-09-06T20:11:41.738Z,19.78
2018-09-06T20:13:53.992Z,19.82
2018-09-06T20:16:06.283Z,19.81
2018-09-06T20:18:18.493Z,19.75
2018-09-06T20:20:30.795Z,19.73
2018-09-06T20:22:43.015Z,19.66
2018-09-06T20:24:55.259Z,19.62
2018-09-06T20:27:07.494Z,19.60
2018-09-06T20:29:19.779Z,19.53
2018-09-06T20:31:32.039Z,19.50
2018-09-06T20:33:44.309Z,19.48
2018-09-06T20:35:56.587Z,19.54
2018-09-06T20:38:08.862Z,19.58
2018-09-06T20:40:21.128Z,19.61
2018-09-06T20:42:33.363Z,19.56
2018-09-06T20:44:45.598Z,19.55
2018-09-06T20:46:57.824Z,19.60
2018-09-06T20:49:10.063Z,19.63
2018-09-06T20:51:22.341Z,19.57
2018-09-06T20:53:34.620Z,19.59
2018-09-06T20:55:47.556Z,19.55
2018-09-06T20:57:59.852Z,19.55
2018-09-06T21:00:12.100Z,19.58
2018-09-06T21:02:24.880Z,19.63
2018-09-06T21:04:37.193Z,19.67
2018-09-06T21:06:49.537Z,19.68
2018-09-06T21:09:01.854Z,19.60
2018-09-06T21:11:14.189Z,19.56
2018-09-06T21:13:26.407Z,19.56
2018-09-06T21:15:38.678Z,19.52
2018-09-06T21:17:50.917Z,19.53
2018-09-06T21:20:03.371Z,19.54
2018-09-06T21:22:15.660Z,19.53
2018-09-06T21:24:27.887Z,19.53
2018-09-06T21:26:40.100Z,19.54
2018-09-06T21:28:52.364Z,19.54
2018-09-06T21:31:04.607Z,19.56
2018-09-06T21:33:16.870Z,19.58
2018-09-06T21:35:29.147Z,19.59
2018-09-06T21:37:41.388Z,19.63
2018-09-06T21:39:53.660Z,19.61
2018-09-06T21:42:05.910Z,19.56
2018-09-06T21:44:18.193Z,19.58
2018-09-06T21:46:30.719Z,19.57
2018-09-06T21:48:42.958Z,19.54
2018-09-06T21:50:55.225Z,19.51
2018-09-06T21:53:07.579Z,19.50
2018-09-06T21:55:19.754Z,19.40
2018-09-06T21:57:31.956Z,19.31
2018-09-06T21:59:44.190Z,19.27
2018-09-06T22:01:56.434Z,19.27
2018-09-06T22:04:09.238Z,19.29
2018-09-06T22:06:21.474Z,19.26
2018-09-06T22:08:33.684Z,19.25
2018-09-06T22:10:45.939Z,19.23
2018-09-06T22:12:58.192Z,19.25
2018-09-06T22:15:10.457Z,19.32
2018-09-06T22:17:22.686Z,19.36
2018-09-06T22:19:34.931Z,19.37
2018-09-06T22:21:47.161Z,19.35
2018-09-06T22:23:59.421Z,19.35
2018-09-06T22:26:11.669Z,19.34
2018-09-06T22:28:23.904Z,19.30
2018-09-06T22:30:36.109Z,19.26
2018-09-06T22:32:48.358Z,19.22
2018-09-06T22:35:00.652Z,19.22
2018-09-06T22:37:12.893Z,19.17
2018-09-06T22:39:25.163Z,19.19
2018-09-06T22:41:37.430Z,19.21
2018-09-06T22:43:49.663Z,19.21
2018-09-06T22:46:02.271Z,19.15
2018-09-06T22:48:14.496Z,19.17
2018-09-06T22:50:27.424Z,19.16
2018-09-06T22:52:39.639Z,19.15
2018-09-06T22:54:51.862Z,19.09
2018-09-06T22:57:04.138Z,19.08
2018-09-06T22:59:16.431Z,19.08
2018-09-06T23:01:28.630Z,19.02
2018-09-06T23:03:42.817Z,19.04
2018-09-06T23:05:55.063Z,19.03
2018-09-06T23:08:07.300Z,19.00
2018-09-06T23:10:19.574Z,19.00
2018-09-06T23:12:31.705Z,18.97
2018-09-06T23:14:43.911Z,18.93
2018-09-06T23:16:56.123Z,18.93
2018-09-06T23:19:08.361Z,18.94
2018-09-06T23:21:20.568Z,18.98
2018-09-06T23:23:32.790Z,18.97
2018-09-06T23:25:45.026Z,18.98
2018-09-06T23:27:57.243Z,18.92
2018-09-06T23:30:09.534Z,18.83
2018-09-06T23:32:22.002Z,18.82
2018-09-06T23:34:35.409Z,18.75
2018-09-06T23:36:47.599Z,18.71
2018-09-06T23:38:59.822Z,18.73
2018-09-06T23:41:11.990Z,18.75
2018-09-06T23:43:25.462Z,18.79
2018-09-06T23:45:37.750Z,18.82
2018-09-06T23:47:50.008Z,18.82
2018-09-06T23:50:02.251Z,18.82
2018-09-06T23:52:14.419Z,18.81
2018-09-06T23:54:26.625Z,18.79
2018-09-06T23:56:38.831Z,18.82
2018-09-06T23:58:51.077Z,18.83
